Minburn, Iowa
Current Conditions -  °F | °C
As of 6:55 AM on Friday 24 Oct 2014 (Local Time) from KPRO Reporting Station
Haze Haze  
Wind Chill: 57°   Ceiling: 200
Heat Index: 57°   Visibility: 0.75mi
Dew Point: 57°   Wind: 10mph
Humidity: 98%   Direction: 180°S
Pressure: 29.96"   Gusts: NA
Location:  41.76°N, 94.03°W
Report Text: KPRO 241155Z AUTO 18009KT 3/4SM BR OVC002 14/14 A2996 RMK AO2 T01400137 10140 20067
Loading
Personal Weather Stations






























Interactive Weather Map
Tropical Storm Tracking
New forecast layout! Learn more

10-Day Weather Forecast

Advertisements
Track Severe Weather on mobile